Time;durP1;ratioP1;P1;durP2;ratioP2;P2;SDS_P1;SDS_P2;PMS_P1;PMS_P2;Temp;Humidity;BMP_temperature;BMP_pressure;BME280_temperature;BME280_humidity;BME280_pressure;Samples;Min_cycle;Max_cycle;Signal;HPM_P1;HPM_P2
2022/03/16 00:01:48;;;;;;;;;4.75;4.75;;;;;18.34;54.49;102491.06;4897268;29;9638;-75
2022/03/16 00:04:14;;;;;;;;;3.00;3.00;;;;;18.39;54.00;102496.44;4896973;29;8819;-74
2022/03/16 00:06:39;;;;;;;;;4.25;4.00;;;;;18.37;54.00;102494.63;4896406;29;9645;-73
2022/03/16 00:09:05;;;;;;;;;4.25;4.25;;;;;18.39;53.99;102498.19;4895882;29;8798;-74
2022/03/16 00:11:30;;;;;;;;;4.75;4.75;;;;;18.43;54.10;102498.25;4896650;29;8814;-75
2022/03/16 00:13:55;;;;;;;;;3.00;3.00;;;;;18.40;53.99;102500.88;4896019;29;8838;-74
2022/03/16 00:16:21;;;;;;;;;3.00;3.00;;;;;18.40;53.94;102505.25;4896921;29;8821;-73
2022/03/16 00:18:49;;;;;;;;;6.25;4.75;;;;;18.38;53.89;102492.00;4896854;29;8831;-75
2022/03/16 00:21:14;;;;;;;;;3.25;3.25;;;;;18.39;53.99;102504.38;4895890;29;8815;-75
2022/03/16 00:23:39;;;;;;;;;3.00;3.00;;;;;18.38;53.64;102506.97;4896794;29;9725;-75
2022/03/16 00:26:04;;;;;;;;;4.75;3.75;;;;;18.34;53.65;102509.56;4896480;29;8910;-74
2022/03/16 00:28:30;;;;;;;;;2.75;2.75;;;;;18.36;53.60;102509.63;4896030;29;8815;-75
2022/03/16 00:30:55;;;;;;;;;3.00;3.00;;;;;18.33;53.72;102505.13;4896374;29;8922;-74
2022/03/16 00:33:21;;;;;;;;;3.25;3.25;;;;;18.34;53.76;102508.69;4895646;29;8810;-75
2022/03/16 00:35:46;;;;;;;;;6.00;4.00;;;;;18.40;53.56;102497.31;4896151;29;8814;-75
2022/03/16 00:38:13;;;;;;;;;3.50;3.50;;;;;18.40;53.33;102499.97;4898524;29;8823;-75
2022/03/16 00:40:39;;;;;;;;;3.25;3.25;;;;;18.35;53.57;102502.53;4895342;29;8819;-75
2022/03/16 00:43:04;;;;;;;;;3.25;3.25;;;;;18.35;53.75;102492.84;4895692;29;9716;-75
2022/03/16 00:45:32;;;;;;;;;3.00;2.50;;;;;18.35;53.71;102498.13;4896313;29;8959;-75
2022/03/16 00:47:57;;;;;;;;;3.75;3.75;;;;;18.34;53.57;102483.13;4894859;29;8815;-74
2022/03/16 00:50:23;;;;;;;;;3.00;3.00;;;;;18.32;53.49;102484.88;4896152;29;9674;-75
2022/03/16 00:52:48;;;;;;;;;4.75;3.25;;;;;18.32;53.55;102484.88;4895675;29;8922;-74
2022/03/16 00:55:13;;;;;;;;;3.25;3.25;;;;;18.30;53.51;102485.69;4895001;29;8818;-74
2022/03/16 00:57:39;;;;;;;;;5.50;4.00;;;;;18.31;53.67;102483.09;4895532;29;8831;-75
2022/03/16 01:00:05;;;;;;;;;4.75;3.75;;;;;18.31;53.66;102490.13;4895104;29;8838;-75
2022/03/16 01:02:31;;;;;;;;;2.00;2.00;;;;;18.33;53.32;102486.63;4894828;29;9016;-74
2022/03/16 01:04:56;;;;;;;;;3.50;3.50;;;;;18.35;53.23;102484.03;4895450;29;9745;-75
2022/03/16 01:07:21;;;;;;;;;3.00;3.00;;;;;18.32;53.24;102491.91;4895352;29;8811;-75
2022/03/16 01:09:47;;;;;;;;;2.75;2.75;;;;;18.29;53.26;102489.22;4895031;29;8906;-75
2022/03/16 01:12:12;;;;;;;;;5.50;5.00;;;;;18.32;53.53;102491.91;4895016;29;8897;-75
2022/03/16 01:14:37;;;;;;;;;4.25;3.25;;;;;18.31;53.38;102490.13;4895463;29;8803;-75
2022/03/16 01:17:03;;;;;;;;;3.00;3.00;;;;;18.29;53.28;102487.47;4894551;29;9610;-75
2022/03/16 01:19:29;;;;;;;;;4.00;4.00;;;;;18.28;53.29;102484.78;4895427;29;8838;-74
2022/03/16 01:21:55;;;;;;;;;3.75;3.75;;;;;18.30;53.29;102480.41;4894099;29;8870;-75
2022/03/16 01:24:20;;;;;;;;;3.00;3.00;;;;;18.29;53.07;102474.25;4894739;29;9473;-75
2022/03/16 01:26:45;;;;;;;;;2.00;2.00;;;;;18.25;53.12;102471.53;4895155;29;8807;-75
2022/03/16 01:29:11;;;;;;;;;3.00;3.00;;;;;18.27;53.17;102475.06;4894834;29;9523;-74
2022/03/16 01:31:36;;;;;;;;;2.75;2.75;;;;;18.29;53.12;102468.97;4894677;29;8954;-74
2022/03/16 01:34:01;;;;;;;;;3.00;3.00;;;;;18.31;52.88;102471.63;4894722;29;8795;-75
2022/03/16 01:36:27;;;;;;;;;1.50;1.50;;;;;18.29;53.14;102470.72;4898184;29;8868;-75
2022/03/16 01:38:52;;;;;;;;;3.00;3.00;;;;;18.33;53.05;102467.25;4894393;29;8839;-75
2022/03/16 01:41:17;;;;;;;;;4.75;3.50;;;;;18.29;52.79;102476.91;4894549;29;8815;-75
2022/03/16 01:43:43;;;;;;;;;2.00;2.00;;;;;18.28;52.61;102479.50;4894516;29;8866;-75
2022/03/16 01:46:08;;;;;;;;;3.00;3.00;;;;;18.29;52.75;102473.38;4894825;29;8791;-75
2022/03/16 01:48:34;;;;;;;;;4.50;2.50;;;;;18.23;52.91;102476.78;4894690;29;8913;-75
2022/03/16 01:51:00;;;;;;;;;3.00;3.00;;;;;18.27;52.89;102475.06;4893684;29;8850;-75
2022/03/16 01:53:26;;;;;;;;;3.00;3.00;;;;;18.26;52.84;102471.53;4894582;29;8839;-74
2022/03/16 01:55:52;;;;;;;;;2.25;2.25;;;;;18.25;52.86;102469.78;4894831;29;10030;-74
2022/03/16 01:58:17;;;;;;;;;3.00;3.00;;;;;18.21;52.56;102460.03;4893561;29;9735;-73
2022/03/16 02:00:43;;;;;;;;;3.00;3.00;;;;;18.24;52.61;102467.09;4894556;29;8839;-74
2022/03/16 02:03:09;;;;;;;;;4.00;4.00;;;;;18.24;52.72;102477.69;4894032;29;8842;-75
2022/03/16 02:05:35;;;;;;;;;2.75;2.50;;;;;18.24;52.85;102472.38;4893989;29;8886;-74
2022/03/16 02:08:03;;;;;;;;;3.50;3.50;;;;;18.23;52.50;102465.31;4894263;29;9763;-74
2022/03/16 02:10:29;;;;;;;;;2.00;2.00;;;;;18.23;52.36;102465.31;4894660;29;9728;-74
2022/03/16 02:12:57;;;;;;;;;3.50;3.50;;;;;18.14;52.72;102452.84;4893432;29;10375;-74
2022/03/16 02:15:23;;;;;;;;;2.75;2.75;;;;;18.25;52.36;102460.97;4894768;29;8934;-74
2022/03/16 02:17:50;;;;;;;;;4.00;4.00;;;;;18.23;52.36;102454.75;4894436;29;9538;-74
2022/03/16 02:20:16;;;;;;;;;3.00;3.00;;;;;18.21;52.20;102457.38;4893504;29;9657;-74
2022/03/16 02:22:55;;;;;;;;;4.00;4.00;;;;;18.21;52.62;102459.13;4894548;29;9781;-74
2022/03/16 02:25:21;;;;;;;;;2.75;2.75;;;;;18.23;52.44;102454.75;4894592;29;9674;-74
2022/03/16 02:27:47;;;;;;;;;2.50;2.50;;;;;18.21;52.30;102445.91;4893500;29;9686;-74
2022/03/16 02:30:13;;;;;;;;;3.00;3.00;;;;;18.19;52.27;102440.59;4894041;29;9544;-74
2022/03/16 02:32:38;;;;;;;;;3.00;3.00;;;;;18.20;52.12;102441.47;4894215;29;8834;-74
2022/03/16 02:35:04;;;;;;;;;4.50;4.50;;;;;18.20;52.19;102434.44;4893057;29;9622;-74
2022/03/16 02:37:29;;;;;;;;;3.50;3.50;;;;;18.20;52.39;102429.16;4897121;29;8826;-74
2022/03/16 02:39:55;;;;;;;;;4.50;3.50;;;;;18.21;52.44;102428.28;4893562;29;9652;-74
2022/03/16 02:42:21;;;;;;;;;5.00;4.00;;;;;18.18;52.27;102424.72;4894651;29;8811;-74
2022/03/16 02:44:46;;;;;;;;;3.50;3.50;;;;;18.21;52.25;102419.47;4894546;29;8799;-74
2022/03/16 02:47:12;;;;;;;;;2.50;2.50;;;;;18.22;52.40;102419.47;4893284;29;9690;-75
2022/03/16 02:49:37;;;;;;;;;3.00;3.00;;;;;18.20;52.26;102428.25;4894216;29;8815;-74
2022/03/16 02:52:09;;;;;;;;;3.25;3.25;;;;;18.21;51.99;102425.66;4893873;29;8910;-75
2022/03/16 02:54:35;;;;;;;;;5.00;3.00;;;;;18.21;52.11;102411.53;4893328;29;8930;-75
2022/03/16 02:57:00;;;;;;;;;5.75;5.00;;;;;18.14;52.26;102413.22;4893771;29;9888;-74
2022/03/16 02:59:26;;;;;;;;;3.75;3.75;;;;;18.22;52.06;102421.25;4894112;29;8839;-75
2022/03/16 03:01:51;;;;;;;;;4.75;4.75;;;;;18.19;52.09;102427.38;4893117;29;8859;-74
2022/03/16 03:04:17;;;;;;;;;5.00;4.00;;;;;18.20;52.29;102425.63;4893499;29;8835;-74
2022/03/16 03:06:42;;;;;;;;;2.25;2.25;;;;;18.19;52.08;102424.72;4892933;29;8811;-74
2022/03/16 03:09:07;;;;;;;;;4.00;3.00;;;;;18.18;52.10;102427.38;4893232;29;8826;-74
2022/03/16 03:11:32;;;;;;;;;3.50;3.50;;;;;18.18;51.77;102428.22;4893977;29;8873;-74
2022/03/16 03:13:58;;;;;;;;;3.25;3.25;;;;;18.15;52.20;102424.63;4893613;29;8811;-73
2022/03/16 03:16:23;;;;;;;;;5.50;5.50;;;;;18.17;52.16;102421.19;4893131;29;8827;-75
2022/03/16 03:18:48;;;;;;;;;5.00;5.00;;;;;18.19;51.72;102421.19;4893788;29;8849;-75
2022/03/16 03:21:13;;;;;;;;;5.25;4.00;;;;;18.18;51.74;102419.44;4893376;29;8815;-74
2022/03/16 03:23:39;;;;;;;;;4.00;4.00;;;;;18.17;51.88;102420.28;4893408;29;8823;-74
2022/03/16 03:26:04;;;;;;;;;5.25;4.25;;;;;18.18;51.75;102419.44;4893644;29;8831;-75
2022/03/16 03:28:29;;;;;;;;;3.50;3.50;;;;;18.18;52.00;102427.38;4893878;29;9515;-74
2022/03/16 03:30:55;;;;;;;;;3.25;3.25;;;;;18.16;51.63;102416.75;4893162;29;8870;-73
2022/03/16 03:33:20;;;;;;;;;5.00;4.25;;;;;18.12;51.60;102412.28;4893884;29;10006;-75
2022/03/16 03:35:45;;;;;;;;;6.00;6.00;;;;;18.16;51.84;102415.84;4894012;29;9031;-73
2022/03/16 03:38:11;;;;;;;;;3.50;3.50;;;;;18.17;51.65;102412.34;4895836;29;8819;-75
2022/03/16 03:40:36;;;;;;;;;4.00;4.00;;;;;18.15;51.63;102408.78;4893960;29;8827;-74
2022/03/16 03:43:02;;;;;;;;;3.50;3.50;;;;;18.17;51.56;102409.72;4893617;29;9667;-74
2022/03/16 03:45:27;;;;;;;;;5.25;4.00;;;;;18.14;51.61;102412.31;4895026;29;8901;-74
2022/03/16 03:47:52;;;;;;;;;3.25;3.25;;;;;18.16;51.67;102411.47;4897136;29;8827;-75
2022/03/16 03:50:19;;;;;;;;;3.00;3.00;;;;;18.18;51.86;102406.22;4895862;29;8847;-74
2022/03/16 03:52:44;;;;;;;;;4.75;4.00;;;;;18.15;51.60;102406.13;4897087;29;8811;-75
2022/03/16 03:55:09;;;;;;;;;4.00;4.00;;;;;18.15;51.79;102408.78;4896822;29;9874;-74
2022/03/16 03:57:38;;;;;;;;;3.50;3.50;;;;;18.14;52.02;102409.66;4896511;29;8799;-74
2022/03/16 04:00:04;;;;;;;;;4.75;4.75;;;;;18.15;51.41;102400.84;4896808;29;8839;-74
2022/03/16 04:02:29;;;;;;;;;3.00;3.00;;;;;18.13;51.70;102407.88;4896574;29;9624;-76
2022/03/16 04:04:55;;;;;;;;;3.00;3.00;;;;;18.15;51.50;102401.75;4895649;29;9741;-74
2022/03/16 04:07:20;;;;;;;;;3.75;3.75;;;;;18.13;51.42;102403.50;4896909;29;8843;-74
2022/03/16 04:09:48;;;;;;;;;3.75;3.75;;;;;18.13;51.63;102406.13;4896802;29;9666;-75
2022/03/16 04:12:14;;;;;;;;;2.25;2.25;;;;;18.10;51.83;102398.16;4895961;29;8811;-74
2022/03/16 04:14:39;;;;;;;;;5.00;4.50;;;;;18.14;51.39;102409.66;4896785;29;9781;-74
2022/03/16 04:17:04;;;;;;;;;4.00;3.75;;;;;18.12;51.60;102400.81;4896284;29;8942;-74
2022/03/16 04:19:30;;;;;;;;;5.25;4.00;;;;;18.10;51.47;102402.56;4895955;29;8869;-75
2022/03/16 04:21:55;;;;;;;;;4.00;4.00;;;;;18.09;51.62;102404.31;4896482;29;8815;-74
2022/03/16 04:24:22;;;;;;;;;3.25;3.25;;;;;18.06;51.70;102404.25;4896625;29;8918;-75
2022/03/16 04:26:47;;;;;;;;;4.25;3.00;;;;;18.10;51.69;102410.50;4895769;29;8813;-75
2022/03/16 04:29:13;;;;;;;;;2.25;2.00;;;;;18.07;51.51;102403.38;4896002;29;9754;-75
2022/03/16 04:31:38;;;;;;;;;2.25;2.25;;;;;18.12;51.27;102409.63;4896266;29;8807;-75
2022/03/16 04:34:03;;;;;;;;;3.00;3.00;;;;;18.08;51.50;102410.44;4894851;29;8831;-74
2022/03/16 04:36:31;;;;;;;;;4.00;4.00;;;;;18.11;51.34;102420.19;4899309;29;8917;-74
2022/03/16 04:38:57;;;;;;;;;3.25;3.25;;;;;18.08;51.54;102414.84;4896053;29;8904;-74
2022/03/16 04:41:22;;;;;;;;;3.75;3.00;;;;;18.08;51.61;102413.09;4895198;29;9666;-74
2022/03/16 04:43:48;;;;;;;;;2.50;2.50;;;;;18.11;51.26;102417.56;4896354;29;9690;-75
2022/03/16 04:46:13;;;;;;;;;5.00;5.00;;;;;18.07;51.26;102407.81;4895573;29;9337;-74
2022/03/16 04:48:38;;;;;;;;;4.00;4.00;;;;;18.05;51.43;102406.88;4895270;29;8923;-74
2022/03/16 04:51:05;;;;;;;;;2.75;2.75;;;;;18.06;51.49;102406.91;4895682;29;8837;-74
2022/03/16 04:53:33;;;;;;;;;3.50;3.50;;;;;18.07;51.65;102407.81;4895505;29;8878;-74
2022/03/16 04:55:58;;;;;;;;;2.25;2.25;;;;;18.06;51.28;102396.34;4895264;29;9788;-75
2022/03/16 04:58:23;;;;;;;;;3.75;2.25;;;;;18.07;51.22;102399.88;4895879;29;9800;-75
2022/03/16 05:00:48;;;;;;;;;4.00;4.00;;;;;18.00;51.45;102387.41;4895130;29;8862;-74
2022/03/16 05:03:14;;;;;;;;;3.00;3.00;;;;;18.03;51.47;102396.28;4895045;29;8973;-74
2022/03/16 05:05:39;;;;;;;;;2.75;2.25;;;;;18.03;51.15;102384.81;4895790;29;8818;-73
2022/03/16 05:08:05;;;;;;;;;2.50;2.00;;;;;18.08;51.19;102385.75;4894591;29;8807;-74
2022/03/16 05:10:30;;;;;;;;;3.00;3.00;;;;;18.04;51.18;102389.22;4895689;29;9689;-74
2022/03/16 05:12:55;;;;;;;;;4.00;4.00;;;;;18.01;50.97;102391.81;4895402;29;8795;-74
2022/03/16 05:15:21;;;;;;;;;3.00;3.00;;;;;18.01;51.19;102391.81;4894805;29;9526;-74
2022/03/16 05:17:47;;;;;;;;;3.00;3.00;;;;;18.00;51.11;102396.22;4895424;29;8814;-74
2022/03/16 05:20:13;;;;;;;;;4.00;4.00;;;;;18.03;51.16;102400.69;4895055;29;8926;-74
2022/03/16 05:22:45;;;;;;;;;2.75;2.75;;;;;18.03;51.15;102398.94;4894481;29;8835;-74
2022/03/16 05:25:12;;;;;;;;;5.00;4.00;;;;;18.01;50.99;102400.66;4894989;29;9767;-74
2022/03/16 05:27:38;;;;;;;;;3.50;3.50;;;;;18.00;51.03;102395.31;4895230;29;10501;-73
2022/03/16 05:30:06;;;;;;;;;4.00;4.00;;;;;18.00;50.93;102397.97;4894284;29;9744;-74
2022/03/16 05:32:32;;;;;;;;;3.00;2.75;;;;;18.00;51.38;102392.69;4895153;29;9737;-74
2022/03/16 05:35:01;;;;;;;;;3.25;2.25;;;;;18.02;51.16;102394.50;4895062;29;9701;-74
2022/03/16 05:37:26;;;;;;;;;3.75;3.00;;;;;18.01;51.35;102394.47;4897689;29;9606;-75
2022/03/16 05:39:52;;;;;;;;;4.00;4.00;;;;;18.02;51.15;102389.22;4895200;29;9712;-75
2022/03/16 05:42:18;;;;;;;;;3.00;3.00;;;;;17.99;50.85;102380.34;4894855;29;8988;-75
2022/03/16 05:44:43;;;;;;;;;4.00;4.00;;;;;17.99;51.07;102391.81;4894503;29;10118;-75
2022/03/16 05:47:08;;;;;;;;;3.00;3.00;;;;;18.00;50.96;102390.94;4894884;29;8921;-75
2022/03/16 05:49:34;;;;;;;;;4.00;4.00;;;;;17.98;50.99;102397.06;4895204;29;8800;-74
2022/03/16 05:51:59;;;;;;;;;5.00;3.33;;;;;18.00;51.04;102393.56;4893882;29;8900;-74
2022/03/16 05:54:24;;;;;;;;;2.33;2.33;;;;;17.97;50.97;102400.56;4895147;29;8914;-74
2022/03/16 05:56:50;;;;;;;;;4.00;3.75;;;;;17.95;50.85;102399.66;4894210;29;8808;-74
2022/03/16 05:59:15;;;;;;;;;4.00;3.00;;;;;17.94;50.89;102393.50;4894589;29;8843;-74
2022/03/16 06:01:40;;;;;;;;;2.75;2.75;;;;;18.00;50.87;102387.41;4893429;29;8835;-74
2022/03/16 06:04:05;;;;;;;;;4.00;4.00;;;;;17.98;50.79;102391.78;4893827;29;8795;-74
2022/03/16 06:06:31;;;;;;;;;2.25;2.00;;;;;17.97;50.96;102390.00;4894756;29;8953;-75
2022/03/16 06:08:57;;;;;;;;;2.00;2.00;;;;;17.99;50.83;102393.56;4893739;29;8807;-74
2022/03/16 06:11:23;;;;;;;;;3.75;3.75;;;;;17.98;50.94;102399.72;4893839;29;8791;-74
2022/03/16 06:13:48;;;;;;;;;2.50;2.50;;;;;17.98;50.57;102391.78;4894640;29;9483;-74
2022/03/16 06:16:14;;;;;;;;;2.00;2.00;;;;;17.95;50.49;102404.97;4894276;29;9444;-74
2022/03/16 06:18:39;;;;;;;;;3.00;3.00;;;;;17.97;50.43;102395.28;4893938;29;8839;-74
2022/03/16 06:21:07;;;;;;;;;3.75;3.75;;;;;17.94;50.28;102390.84;4894331;29;9052;-75
2022/03/16 06:23:37;;;;;;;;;4.75;4.75;;;;;17.91;50.25;102387.28;4894384;29;9419;-74
2022/03/16 06:26:05;;;;;;;;;2.75;2.75;;;;;17.95;50.48;102391.75;4893860;29;9661;-73
2022/03/16 06:28:33;;;;;;;;;3.75;3.75;;;;;17.92;50.43;102389.06;4894606;29;9569;-73
2022/03/16 06:30:58;;;;;;;;;4.25;3.25;;;;;17.91;50.59;102388.16;4894062;29;9365;-74
2022/03/16 06:33:23;;;;;;;;;3.00;1.50;;;;;17.93;50.57;102390.81;4893715;29;9357;-73
2022/03/16 06:35:49;;;;;;;;;2.50;2.50;;;;;17.90;50.38;102385.47;4894733;29;8803;-74
2022/03/16 06:38:14;;;;;;;;;2.25;2.25;;;;;17.97;50.09;102393.53;4896860;29;8862;-74
2022/03/16 06:40:40;;;;;;;;;3.50;3.50;;;;;17.98;50.11;102390.03;4893820;29;8954;-74
2022/03/16 06:43:05;;;;;;;;;2.33;2.33;;;;;17.96;50.46;102397.03;4893806;29;8842;-75
2022/03/16 06:45:30;;;;;;;;;3.00;3.00;;;;;18.00;49.94;102401.50;4894264;29;9528;-73
2022/03/16 06:48:01;;;;;;;;;2.75;2.75;;;;;18.00;50.01;102396.22;4893377;29;8803;-74
2022/03/16 06:50:27;;;;;;;;;2.00;2.00;;;;;18.02;49.95;102398.91;4894428;29;8815;-74
2022/03/16 06:52:56;;;;;;;;;2.00;2.00;;;;;18.01;50.16;102400.66;4894432;29;10341;-74
2022/03/16 06:55:22;;;;;;;;;5.25;4.25;;;;;18.05;49.85;102397.19;4893301;29;9546;-74
2022/03/16 06:57:47;;;;;;;;;3.00;3.00;;;;;18.03;50.00;102398.03;4894177;29;9585;-83
2022/03/16 07:00:15;;;;;;;;;4.00;4.00;;;;;18.14;53.79;102385.88;4893865;29;8877;-82
2022/03/16 07:03:06;;;;;;;;;6.00;3.25;;;;;18.27;54.10;102388.72;4894447;29;9544;-84
2022/03/16 07:05:33;;;;;;;;;1.00;0.50;;;;;18.35;55.87;102379.16;4891419;29;9616;-84
2022/03/16 07:08:01;;;;;;;;;4.75;2.75;;;;;18.44;57.04;102383.69;4893333;29;9447;-83
2022/03/16 07:10:27;;;;;;;;;4.50;2.75;;;;;18.48;57.87;102374.94;4893884;29;10273;-80
2022/03/16 07:12:56;;;;;;;;;3.00;3.00;;;;;18.57;59.28;102377.72;4894241;29;9614;-78
2022/03/16 07:15:23;;;;;;;;;3.50;3.50;;;;;18.64;59.63;102376.91;4894829;29;9463;-76
2022/03/16 07:17:48;;;;;;;;;2.75;2.75;;;;;18.67;61.13;102382.25;4894172;29;9591;-77
2022/03/16 07:20:14;;;;;;;;;3.00;3.00;;;;;18.67;61.32;102376.09;4896503;29;9573;-76
2022/03/16 07:22:40;;;;;;;;;4.00;4.00;;;;;18.65;61.77;102380.47;4896819;29;8987;-76
2022/03/16 07:25:09;;;;;;;;;7.00;5.25;;;;;18.64;61.89;102386.59;4896931;29;9716;-77
2022/03/16 07:27:38;;;;;;;;;9.00;8.00;;;;;18.68;63.08;102381.38;4897576;29;8791;-73
2022/03/16 07:30:08;;;;;;;;;5.25;5.25;;;;;18.72;62.42;102383.19;4896604;29;9601;-74
2022/03/16 07:32:36;;;;;;;;;5.00;3.75;;;;;18.67;61.29;102369.00;4897431;29;9677;-74
2022/03/16 07:35:01;;;;;;;;;6.25;5.25;;;;;18.65;60.40;102375.16;4902407;29;9556;-73
2022/03/16 07:37:26;;;;;;;;;6.00;6.00;;;;;18.57;60.43;102364.47;4905430;29;9535;-74
2022/03/16 07:39:52;;;;;;;;;7.00;5.00;;;;;18.53;59.35;102370.59;4911200;29;8962;-74
2022/03/16 07:42:17;;;;;;;;;9.00;7.50;;;;;18.53;59.20;102373.25;4915411;29;9532;-73
2022/03/16 07:44:42;;;;;;;;;4.00;4.00;;;;;18.53;57.96;102372.34;4915955;29;8792;-73
2022/03/16 07:47:07;;;;;;;;;8.00;8.00;;;;;18.47;56.70;102369.59;4904451;29;8808;-75
2022/03/16 07:49:34;;;;;;;;;7.00;7.00;;;;;18.45;54.27;102380.16;4895929;29;8799;-75
2022/03/16 07:52:00;;;;;;;;;11.50;11.50;;;;;18.42;51.79;102372.19;4895500;29;8965;-74
2022/03/16 07:54:25;;;;;;;;;10.00;10.00;;;;;18.39;50.44;102371.25;4896737;29;10076;-75
2022/03/16 07:56:51;;;;;;;;;12.25;11.00;;;;;18.37;49.58;102373.84;4896502;29;8819;-74
2022/03/16 07:59:16;;;;;;;;;10.50;10.50;;;;;18.31;48.77;102360.56;4896548;29;8839;-75
2022/03/16 08:01:43;;;;;;;;;12.00;11.00;;;;;18.33;47.86;102366.78;4906546;29;8817;-75
2022/03/16 08:04:08;;;;;;;;;11.50;9.75;;;;;18.29;47.20;102363.22;4914364;29;8866;-75
2022/03/16 08:06:34;;;;;;;;;12.75;12.00;;;;;18.29;46.81;102357.91;4915487;29;9848;-75
2022/03/16 08:08:59;;;;;;;;;11.00;10.00;;;;;18.25;46.63;102358.75;4903594;29;9874;-75
2022/03/16 08:11:25;;;;;;;;;10.75;8.75;;;;;18.24;46.48;102361.34;4902419;29;8848;-75
2022/03/16 08:13:50;;;;;;;;;10.50;10.50;;;;;18.26;45.75;102357.84;4915114;29;8836;-75
2022/03/16 08:16:16;;;;;;;;;11.75;10.75;;;;;18.24;45.87;102356.06;4915307;29;8815;-73
2022/03/16 08:18:41;;;;;;;;;11.50;10.75;;;;;18.25;45.74;102361.38;4915024;29;8797;-75
2022/03/16 08:21:07;;;;;;;;;11.00;11.00;;;;;18.28;46.33;102358.78;4907698;29;8858;-75
2022/03/16 08:23:32;;;;;;;;;6.00;6.00;;;;;18.22;45.84;102373.66;4895732;29;8862;-75
2022/03/16 08:25:58;;;;;;;;;6.00;6.00;;;;;18.20;46.57;102375.38;4895924;29;8819;-75
2022/03/16 08:28:24;;;;;;;;;10.25;9.00;;;;;18.19;46.10;102381.53;4896250;29;8820;-75
2022/03/16 08:30:50;;;;;;;;;7.00;6.00;;;;;18.23;46.09;102375.44;4894624;29;11623;-75
2022/03/16 08:33:15;;;;;;;;;5.75;5.75;;;;;18.22;46.27;102374.53;4894365;29;8846;-76
2022/03/16 08:35:46;;;;;;;;;5.25;5.00;;;;;18.23;45.74;102384.25;4895904;29;9578;-74
2022/03/16 08:38:12;;;;;;;;;7.00;6.00;;;;;18.23;45.82;102373.69;4911665;29;11169;-75
2022/03/16 08:40:37;;;;;;;;;5.00;5.00;;;;;18.23;46.09;102383.34;4910670;29;9783;-75
2022/03/16 08:43:03;;;;;;;;;4.25;4.25;;;;;18.24;45.82;102379.84;4895011;29;8830;-74
2022/03/16 08:45:28;;;;;;;;;5.00;4.50;;;;;18.25;45.73;102377.25;4896020;29;8799;-73
2022/03/16 08:47:54;;;;;;;;;5.00;5.00;;;;;18.25;46.28;102368.41;4895156;29;8893;-73
2022/03/16 08:50:20;;;;;;;;;4.50;4.50;;;;;18.32;45.48;102370.28;4895790;29;8807;-74
2022/03/16 08:52:45;;;;;;;;;6.25;5.00;;;;;18.27;45.88;102371.97;4893542;29;8846;-74
2022/03/16 08:55:14;;;;;;;;;7.25;5.00;;;;;18.30;45.69;102377.28;4895409;29;9578;-75
2022/03/16 08:57:39;;;;;;;;;6.25;4.00;;;;;18.27;45.47;102367.56;4895036;29;8815;-74
2022/03/16 09:00:05;;;;;;;;;5.00;4.50;;;;;18.32;45.70;102375.56;4893527;29;10530;-75
2022/03/16 09:02:30;;;;;;;;;5.00;4.00;;;;;18.30;45.68;102367.59;4893909;29;8871;-74
2022/03/16 09:04:56;;;;;;;;;4.00;4.00;;;;;18.32;45.46;102351.78;4910310;29;9748;-74
2022/03/16 09:07:21;;;;;;;;;6.25;5.25;;;;;18.35;45.55;102347.41;4894000;29;8917;-76
2022/03/16 09:09:47;;;;;;;;;6.00;4.75;;;;;18.39;45.27;102347.44;4894628;29;8863;-76
2022/03/16 09:12:12;;;;;;;;;5.00;4.00;;;;;18.38;45.22;102346.56;4893606;29;8827;-74
2022/03/16 09:14:38;;;;;;;;;4.00;4.00;;;;;18.43;45.29;102336.94;4910768;29;8832;-73
2022/03/16 09:17:05;;;;;;;;;5.75;5.75;;;;;18.43;45.01;102333.41;4913258;29;8883;-74
2022/03/16 09:19:30;;;;;;;;;4.75;4.75;;;;;18.45;45.25;102337.84;4912995;29;9903;-73
2022/03/16 09:21:56;;;;;;;;;3.00;3.00;;;;;18.43;45.26;102336.94;4910018;29;9852;-74
2022/03/16 09:24:24;;;;;;;;;4.00;4.00;;;;;18.50;44.99;102330.84;4913630;29;8899;-73
2022/03/16 09:26:50;;;;;;;;;6.00;4.25;;;;;18.44;45.04;102320.22;4913941;29;9743;-74
2022/03/16 09:29:18;;;;;;;;;5.25;5.25;;;;;18.46;44.85;102321.09;4911459;29;9998;-75
2022/03/16 09:31:44;;;;;;;;;3.75;3.75;;;;;18.47;45.27;102325.53;4907470;29;9980;-74
2022/03/16 09:34:10;;;;;;;;;4.25;4.25;;;;;18.48;44.77;102323.78;4913336;29;9703;-75
2022/03/16 09:36:37;;;;;;;;;3.50;3.50;;;;;18.48;44.72;102315.84;4910565;29;8911;-74
2022/03/16 09:39:02;;;;;;;;;3.50;3.50;;;;;18.47;44.92;102319.34;4913931;29;9510;-74
2022/03/16 09:41:28;;;;;;;;;3.25;2.50;;;;;18.49;44.69;102320.25;4914018;29;9712;-75
2022/03/16 09:43:54;;;;;;;;;5.50;3.75;;;;;18.52;44.64;102318.56;4912900;29;8793;-75
2022/03/16 09:46:29;;;;;;;;;4.00;3.25;;;;;18.50;44.96;102308.81;4913810;29;9513;-75
2022/03/16 09:48:54;;;;;;;;;3.75;3.75;;;;;18.52;44.80;102317.69;4913233;29;8804;-75
2022/03/16 09:51:20;;;;;;;;;3.00;3.00;;;;;18.50;45.00;102311.44;4905921;29;9524;-74
2022/03/16 09:53:46;;;;;;;;;3.25;3.25;;;;;18.52;44.87;102315.06;4895479;29;8791;-74
2022/03/16 09:56:12;;;;;;;;;1.00;1.00;;;;;18.55;45.02;102317.72;4894504;29;8811;-74
2022/03/16 09:58:37;;;;;;;;;3.00;2.25;;;;;18.57;45.02;102318.63;4895169;29;8894;-74
2022/03/16 10:01:05;;;;;;;;;2.00;2.00;;;;;18.60;44.77;102305.44;4895121;29;8858;-74
2022/03/16 10:03:31;;;;;;;;;2.25;2.25;;;;;18.54;44.95;102306.25;4894291;29;8865;-73
2022/03/16 10:05:58;;;;;;;;;3.00;3.00;;;;;18.54;45.28;102316.84;4894635;29;9534;-73
2022/03/16 10:08:28;;;;;;;;;3.75;3.75;;;;;18.59;45.26;102322.19;4895275;29;9447;-75
2022/03/16 10:14:07;;;;;;;;;2.00;2.00;;;;;18.60;45.30;102310.72;4894840;29;9504;-74
2022/03/16 10:19:24;;;;;;;;;1.50;1.00;;;;;18.65;45.35;102307.28;4894117;29;9708;-75
2022/03/16 10:22:00;;;;;;;;;3.75;2.00;;;;;18.66;45.29;102317.00;4895281;29;9585;-75
2022/03/16 10:24:29;;;;;;;;;3.75;2.75;;;;;18.64;45.45;102317.81;4894077;29;9472;-74
2022/03/16 10:26:58;;;;;;;;;3.00;3.00;;;;;18.66;45.08;102309.06;4896258;29;9466;-73
2022/03/16 10:29:25;;;;;;;;;3.50;2.25;;;;;18.67;45.48;102310.81;4895950;29;9599;-73
2022/03/16 10:32:04;;;;;;;;;2.00;2.00;;;;;18.73;45.40;102323.25;4892780;29;9879;-74
2022/03/16 10:34:31;;;;;;;;;1.00;1.00;;;;;18.70;45.17;102318.81;4893461;29;10390;-73
2022/03/16 10:37:00;;;;;;;;;1.50;1.50;;;;;18.71;45.39;102312.63;4900811;29;9502;-72
2022/03/16 10:39:36;;;;;;;;;2.00;2.00;;;;;18.73;45.56;102307.38;4912098;29;10219;-74
2022/03/16 10:48:01;;;;;;;;;3.25;2.50;;;;;18.73;45.16;102291.50;4895543;29;9428;-74
2022/03/16 10:50:47;;;;;;;;;2.00;2.00;;;;;18.75;45.37;102289.72;4895370;29;9597;-74
2022/03/16 10:53:15;;;;;;;;;2.50;2.00;;;;;18.77;45.49;102288.00;4900551;29;9460;-74
2022/03/16 10:55:41;;;;;;;;;1.75;1.75;;;;;18.75;45.84;102287.97;4898452;29;9726;-73
2022/03/16 10:58:10;;;;;;;;;1.75;1.75;;;;;18.75;45.73;102285.34;4897961;29;9599;-74
2022/03/16 11:00:37;;;;;;;;;2.25;2.25;;;;;18.78;45.40;102288.00;4897498;29;9495;-75
2022/03/16 11:03:06;;;;;;;;;1.00;1.00;;;;;18.77;45.63;102286.25;4897495;29;9561;-75
2022/03/16 11:05:36;;;;;;;;;3.50;1.25;;;;;18.77;45.85;102294.19;4902349;29;9552;-75
2022/03/16 11:08:06;;;;;;;;;2.00;2.00;;;;;18.81;45.54;102285.41;4896785;29;9566;-75
2022/03/16 11:10:32;;;;;;;;;1.00;1.00;;;;;18.83;45.56;102277.47;4898811;29;9456;-75
2022/03/16 11:15:41;;;;;;;;;2.75;2.25;;;;;18.80;45.52;102274.81;4898661;29;8823;-74
2022/03/16 11:18:06;;;;;;;;;2.50;2.00;;;;;18.84;45.59;102273.97;4898373;29;9625;-75
2022/03/16 11:20:35;;;;;;;;;1.50;1.50;;;;;18.82;45.74;102275.69;4897322;29;8846;-74
2022/03/16 11:26:07;;;;;;;;;3.00;2.50;;;;;18.78;45.74;102284.50;4897300;29;9571;-74
2022/03/16 11:28:54;;;;;;;;;2.00;2.00;;;;;18.81;45.78;102285.41;4896734;29;9604;-75
2022/03/16 11:31:25;;;;;;;;;1.50;1.50;;;;;18.83;46.05;102294.25;4897501;29;9733;-75
2022/03/16 11:33:52;;;;;;;;;0.75;0.75;;;;;18.84;45.98;102295.13;4897856;29;9603;-75
2022/03/16 11:36:35;;;;;;;;;2.00;2.00;;;;;18.86;45.79;102287.22;4898870;29;9553;-75
2022/03/16 11:39:03;;;;;;;;;2.00;2.00;;;;;18.83;46.04;102288.06;4897396;29;9614;-75
2022/03/16 11:41:32;;;;;;;;;2.00;2.00;;;;;18.83;45.78;102293.34;4896945;29;9676;-74
2022/03/16 11:44:03;;;;;;;;;1.00;1.00;;;;;18.84;46.10;102281.91;4897641;29;9695;-75
2022/03/16 11:46:31;;;;;;;;;1.00;1.00;;;;;18.85;45.91;102288.97;4898116;29;9610;-75